createdAt,value
2018-05-23T00:01:10.155Z,3.20
2018-05-23T00:03:37.118Z,3.27
2018-05-23T00:06:04.082Z,3.37
2018-05-23T00:08:31.119Z,2.53
2018-05-23T00:10:58.059Z,2.97
2018-05-23T00:13:25.006Z,3.10
2018-05-23T00:15:51.971Z,3.97
2018-05-23T00:18:19.713Z,4.60
2018-05-23T00:20:46.676Z,2.60
2018-05-23T00:23:14.400Z,2.73
2018-05-23T00:25:41.352Z,3.30
2018-05-23T00:28:08.517Z,4.70
2018-05-23T00:30:35.474Z,5.33
2018-05-23T00:33:03.193Z,4.87
2018-05-23T00:35:30.154Z,3.57
2018-05-23T00:37:57.121Z,2.97
2018-05-23T00:40:24.063Z,2.90
2018-05-23T00:42:51.021Z,2.83
2018-05-23T00:45:17.962Z,3.00
2018-05-23T00:47:45.717Z,3.20
2018-05-23T00:50:12.695Z,2.63
2018-05-23T00:52:40.406Z,3.23
2018-05-23T00:55:07.353Z,3.80
2018-05-23T00:57:34.361Z,3.80
2018-05-23T01:00:01.319Z,2.77
2018-05-23T01:02:28.274Z,4.70
2018-05-23T01:04:55.238Z,4.17
2018-05-23T01:07:22.318Z,2.70
2018-05-23T01:09:50.044Z,3.37
2018-05-23T01:12:16.997Z,3.50
2018-05-23T01:14:43.944Z,3.10
2018-05-23T01:17:12.009Z,2.87
2018-05-23T01:19:38.927Z,3.27
2018-05-23T01:22:05.883Z,3.67
2018-05-23T01:24:32.838Z,3.03
2018-05-23T01:26:59.912Z,3.07
2018-05-23T01:29:26.862Z,5.73
2018-05-23T01:31:54.587Z,3.00
2018-05-23T01:34:21.546Z,2.87
2018-05-23T01:36:48.763Z,2.73
2018-05-23T01:39:15.706Z,3.30
2018-05-23T01:41:42.670Z,4.13
2018-05-23T01:44:09.622Z,3.13
2018-05-23T01:46:36.695Z,3.07
2018-05-23T01:49:03.649Z,2.83
2018-05-23T01:51:30.594Z,3.10
2018-05-23T01:53:57.542Z,3.07
2018-05-23T01:56:24.492Z,3.00
2018-05-23T01:58:51.438Z,3.00
2018-05-23T02:01:19.162Z,3.13
2018-05-23T02:03:46.107Z,2.80
2018-05-23T02:06:13.058Z,3.13
2018-05-23T02:08:40.021Z,3.00
2018-05-23T02:11:06.983Z,3.10
2018-05-23T02:13:33.931Z,2.83
2018-05-23T02:16:01.651Z,2.97
2018-05-23T02:18:28.739Z,3.20
2018-05-23T02:20:55.695Z,3.37
2018-05-23T02:23:23.416Z,3.50
2018-05-23T02:25:50.396Z,3.23
2018-05-23T02:28:18.150Z,3.23
2018-05-23T02:30:45.100Z,2.90
2018-05-23T02:33:12.051Z,2.93
2018-05-23T02:35:39.003Z,2.70
2018-05-23T02:38:06.750Z,2.80
2018-05-23T02:40:33.707Z,2.80
2018-05-23T02:43:01.418Z,3.13
2018-05-23T02:45:28.396Z,3.43
2018-05-23T02:47:55.559Z,2.67
2018-05-23T02:50:23.270Z,3.23
2018-05-23T02:52:50.227Z,2.60
2018-05-23T02:55:17.183Z,2.87
2018-05-23T02:57:44.159Z,3.07
2018-05-23T03:00:11.114Z,3.17
2018-05-23T03:02:38.837Z,2.73
2018-05-23T03:05:05.781Z,3.40
2018-05-23T03:07:32.761Z,2.50
2018-05-23T03:09:59.711Z,2.27
2018-05-23T03:12:27.438Z,4.00
2018-05-23T03:14:54.391Z,3.27
2018-05-23T03:17:21.359Z,3.40
2018-05-23T03:19:48.313Z,3.10
2018-05-23T03:22:16.035Z,3.33
2018-05-23T03:24:42.982Z,3.03
2018-05-23T03:27:09.963Z,3.07
2018-05-23T03:29:36.924Z,2.70
2018-05-23T03:32:04.656Z,3.03
2018-05-23T03:34:31.602Z,2.83
2018-05-23T03:36:58.757Z,3.00
2018-05-23T03:39:26.486Z,3.10
2018-05-23T03:41:53.438Z,3.07
2018-05-23T03:44:20.403Z,2.57
2018-05-23T03:46:47.368Z,2.90
2018-05-23T03:49:14.313Z,4.57
2018-05-23T03:51:42.053Z,2.80
2018-05-23T03:54:08.997Z,3.00
2018-05-23T03:56:36.059Z,2.73
2018-05-23T03:59:03.018Z,3.20
2018-05-23T04:01:29.961Z,4.47
2018-05-23T04:03:57.679Z,3.00
2018-05-23T04:06:24.631Z,2.97
2018-05-23T04:08:51.596Z,3.30
2018-05-23T04:11:18.539Z,3.07
2018-05-23T04:13:45.506Z,3.27
2018-05-23T04:16:12.457Z,2.73
2018-05-23T04:18:39.400Z,3.07
2018-05-23T04:21:06.353Z,3.00
2018-05-23T04:23:33.298Z,3.10
2018-05-23T04:26:01.024Z,3.00
2018-05-23T04:28:28.106Z,3.10
2018-05-23T04:30:55.053Z,2.80
2018-05-23T04:33:22.779Z,2.90
2018-05-23T04:35:49.719Z,3.60
2018-05-23T04:38:16.701Z,5.57
2018-05-23T04:40:43.651Z,3.13
2018-05-23T04:43:11.367Z,2.73
2018-05-23T04:45:38.326Z,3.87
2018-05-23T04:48:05.316Z,3.63
2018-05-23T04:50:32.389Z,3.27
2018-05-23T04:52:59.342Z,3.37
2018-05-23T04:55:26.308Z,6.00
2018-05-23T04:57:53.298Z,2.93
2018-05-23T05:00:20.255Z,3.53
2018-05-23T05:02:47.213Z,2.90
2018-05-23T05:05:14.163Z,2.83
2018-05-23T05:07:41.286Z,3.90
2018-05-23T05:10:09.601Z,2.77
2018-05-23T05:12:36.540Z,2.70
2018-05-23T05:15:03.507Z,2.73
2018-05-23T05:17:30.493Z,2.80
2018-05-23T05:19:57.451Z,2.90
2018-05-23T05:22:25.158Z,2.90
2018-05-23T05:24:52.139Z,2.90
2018-05-23T05:27:19.095Z,4.57
2018-05-23T05:29:46.054Z,3.50
2018-05-23T05:32:14.007Z,3.10
2018-05-23T05:34:40.939Z,3.20
2018-05-23T05:37:08.221Z,3.40
2018-05-23T05:39:35.079Z,3.30
2018-05-23T05:42:02.023Z,3.07
2018-05-23T05:44:28.978Z,3.63
2018-05-23T05:46:56.085Z,3.30
2018-05-23T05:49:23.032Z,2.90
2018-05-23T05:51:49.988Z,3.07
2018-05-23T05:54:16.925Z,2.80
2018-05-23T05:56:44.686Z,3.30
2018-05-23T05:59:11.642Z,3.07
2018-05-23T06:01:39.357Z,3.13
2018-05-23T06:04:06.305Z,3.17
2018-05-23T06:06:33.284Z,3.43
2018-05-23T06:09:00.253Z,3.00
2018-05-23T06:11:27.962Z,4.27
2018-05-23T06:13:54.934Z,3.43
2018-05-23T06:16:21.890Z,8.07
2018-05-23T06:18:48.832Z,10.53
2018-05-23T06:21:16.567Z,30.43
2018-05-23T06:23:43.532Z,12.37
2018-05-23T06:26:10.471Z,10.03
2018-05-23T06:28:37.430Z,9.47
2018-05-23T06:31:04.378Z,9.73
2018-05-23T06:33:32.103Z,9.07
2018-05-23T06:35:59.073Z,16.83
2018-05-23T06:38:27.567Z,12.00
2018-05-23T06:40:54.542Z,15.47
2018-05-23T06:43:22.300Z,12.13
2018-05-23T06:45:49.247Z,12.80
2018-05-23T06:48:16.383Z,10.50
2018-05-23T06:50:43.338Z,29.23
2018-05-23T06:53:10.310Z,13.70
2018-05-23T06:55:37.279Z,12.77
2018-05-23T06:58:04.358Z,10.23
2018-05-23T07:00:31.310Z,8.80
2018-05-23T07:02:59.039Z,8.70
2018-05-23T07:05:26.007Z,23.73
2018-05-23T07:07:53.167Z,27.43
2018-05-23T07:10:20.131Z,11.30
2018-05-23T07:12:47.072Z,14.30
2018-05-23T07:15:14.029Z,9.40
2018-05-23T07:17:41.763Z,9.53
2018-05-23T07:20:08.723Z,10.53
2018-05-23T07:22:36.439Z,8.70
2018-05-23T07:25:03.393Z,8.83
2018-05-23T07:27:30.350Z,9.23
2018-05-23T07:29:58.834Z,8.43
2018-05-23T07:32:25.799Z,8.57
2018-05-23T07:34:53.591Z,8.23
2018-05-23T07:37:20.610Z,9.47
2018-05-23T07:39:47.809Z,7.80
2018-05-23T07:42:15.313Z,9.00
2018-05-23T07:44:43.757Z,9.77
2018-05-23T07:47:12.545Z,8.80
2018-05-23T07:49:39.510Z,9.40
2018-05-23T07:52:06.472Z,9.03
2018-05-23T07:54:33.566Z,12.50
2018-05-23T07:57:00.672Z,10.40
2018-05-23T07:59:28.161Z,11.03
2018-05-23T08:01:55.229Z,11.07
2018-05-23T08:04:22.181Z,10.83
2018-05-23T08:06:49.285Z,12.50
2018-05-23T08:09:16.308Z,9.87
2018-05-23T08:11:43.301Z,16.80
2018-05-23T08:14:11.003Z,10.63
2018-05-23T08:16:38.194Z,9.60
2018-05-23T08:19:06.102Z,11.03
2018-05-23T08:21:33.518Z,12.63
2018-05-23T08:24:01.544Z,10.10
2018-05-23T08:26:28.982Z,9.30
2018-05-23T08:28:55.918Z,10.70
2018-05-23T08:31:23.207Z,9.67
2018-05-23T08:33:50.839Z,12.10
2018-05-23T08:36:17.858Z,12.23
2018-05-23T08:38:45.249Z,8.47
2018-05-23T08:41:12.214Z,7.10
2018-05-23T08:43:39.549Z,11.83
2018-05-23T08:46:06.638Z,6.07
2018-05-23T08:48:33.599Z,5.77
2018-05-23T08:51:00.557Z,5.70
2018-05-23T08:53:27.520Z,7.23
2018-05-23T08:55:54.660Z,5.80
2018-05-23T08:58:21.822Z,7.97
2018-05-23T09:00:48.999Z,5.10
2018-05-23T09:03:16.005Z,8.70
2018-05-23T09:05:42.958Z,13.77
2018-05-23T09:08:10.112Z,12.50
2018-05-23T09:10:37.053Z,16.10
2018-05-23T09:13:03.998Z,10.20
2018-05-23T09:15:30.967Z,10.90
2018-05-23T09:17:58.099Z,10.50
2018-05-23T09:20:25.056Z,16.20
2018-05-23T09:22:52.324Z,18.17
2018-05-23T09:25:19.343Z,11.80
2018-05-23T09:27:46.367Z,14.10
2018-05-23T09:30:13.308Z,12.47
2018-05-23T09:32:41.138Z,12.47
2018-05-23T09:35:08.364Z,9.17
2018-05-23T09:37:35.388Z,11.07
2018-05-23T09:40:02.360Z,11.57
2018-05-23T09:42:29.323Z,10.60
2018-05-23T09:44:56.597Z,11.10
2018-05-23T09:47:24.032Z,11.53
2018-05-23T09:49:51.226Z,10.73
2018-05-23T09:52:18.746Z,11.40
2018-05-23T09:54:46.284Z,11.30
2018-05-23T09:57:13.623Z,12.00
2018-05-23T09:59:40.903Z,9.87
2018-05-23T10:02:08.054Z,12.90
2018-05-23T10:04:35.317Z,11.40
2018-05-23T10:07:02.503Z,12.43
2018-05-23T10:09:29.715Z,9.83
2018-05-23T10:11:56.675Z,9.90
2018-05-23T10:14:23.723Z,18.20
2018-05-23T10:16:50.801Z,14.30
2018-05-23T10:19:17.990Z,15.57
2018-05-23T10:21:45.053Z,15.10
2018-05-23T10:24:11.995Z,10.73
2018-05-23T10:26:39.370Z,10.40
2018-05-23T10:29:06.475Z,10.57
2018-05-23T10:31:33.470Z,9.63
2018-05-23T10:34:00.675Z,8.77
2018-05-23T10:36:28.414Z,10.23
2018-05-23T10:38:55.439Z,13.93
2018-05-23T10:41:23.148Z,11.97
2018-05-23T10:43:50.139Z,12.27
2018-05-23T10:46:17.547Z,7.13
2018-05-23T10:48:44.555Z,9.10
2018-05-23T10:51:11.537Z,10.00
2018-05-23T10:53:38.504Z,11.13
2018-05-23T10:56:05.561Z,8.77
2018-05-23T10:58:32.534Z,8.23
2018-05-23T11:00:59.484Z,9.00
2018-05-23T11:03:26.605Z,8.37
2018-05-23T11:05:53.947Z,7.87
2018-05-23T11:08:21.357Z,6.73
2018-05-23T11:10:49.389Z,9.40
2018-05-23T11:13:17.993Z,6.80
2018-05-23T11:15:45.060Z,8.40
2018-05-23T11:18:12.095Z,6.00
2018-05-23T11:20:39.056Z,6.93
2018-05-23T11:23:07.335Z,8.20
2018-05-23T11:25:34.221Z,6.20
2018-05-23T11:28:01.317Z,12.73
2018-05-23T11:30:28.266Z,11.93
2018-05-23T11:32:55.995Z,14.70
2018-05-23T11:35:22.967Z,11.53
2018-05-23T11:37:50.116Z,14.43
2018-05-23T11:40:17.049Z,15.47
2018-05-23T11:42:44.020Z,8.77
2018-05-23T11:45:10.985Z,6.93
2018-05-23T11:47:38.103Z,16.17
2018-05-23T11:50:06.698Z,9.53
2018-05-23T11:52:33.666Z,9.93
2018-05-23T11:55:00.626Z,10.60
2018-05-23T11:57:27.728Z,11.50
2018-05-23T11:59:54.676Z,10.23
2018-05-23T12:02:23.300Z,9.67
2018-05-23T12:04:50.228Z,6.13
2018-05-23T12:07:17.352Z,11.10
2018-05-23T12:09:45.823Z,13.00
2018-05-23T12:12:12.770Z,5.93
2018-05-23T12:14:39.715Z,5.57
2018-05-23T12:17:06.773Z,5.20
2018-05-23T12:19:33.725Z,6.97
2018-05-23T12:22:00.675Z,8.27
2018-05-23T12:24:27.622Z,8.70
2018-05-23T12:26:55.371Z,9.13
2018-05-23T12:29:22.327Z,5.60
2018-05-23T12:31:50.069Z,7.27
2018-05-23T12:34:17.017Z,6.03
2018-05-23T12:36:44.180Z,8.10
2018-05-23T12:39:11.148Z,6.90
2018-05-23T12:41:38.107Z,5.63
2018-05-23T12:44:05.062Z,5.00
2018-05-23T12:46:32.161Z,6.00
2018-05-23T12:48:59.142Z,5.10
2018-05-23T12:51:26.098Z,6.53
2018-05-23T12:53:53.046Z,4.70
2018-05-23T12:56:20.076Z,4.80
2018-05-23T12:58:46.956Z,5.43
2018-05-23T13:01:13.899Z,5.47
2018-05-23T13:03:40.860Z,7.37
2018-05-23T13:06:07.812Z,5.33
2018-05-23T13:08:34.784Z,8.63
2018-05-23T13:11:01.727Z,5.33
2018-05-23T13:13:29.459Z,5.23
2018-05-23T13:15:56.414Z,5.00
2018-05-23T13:18:23.373Z,4.83
2018-05-23T13:20:50.331Z,5.47
2018-05-23T13:23:18.056Z,8.10
2018-05-23T13:25:45.091Z,7.93
2018-05-23T13:28:12.186Z,8.60
2018-05-23T13:30:39.126Z,5.70
2018-05-23T13:33:06.895Z,5.53
2018-05-23T13:35:33.911Z,5.10
2018-05-23T13:38:01.009Z,5.13
2018-05-23T13:40:27.970Z,10.40
2018-05-23T13:42:54.930Z,4.90
2018-05-23T13:45:21.878Z,5.03
2018-05-23T13:47:48.972Z,6.90
2018-05-23T13:50:15.932Z,10.93
2018-05-23T13:52:43.658Z,7.07
2018-05-23T13:55:10.700Z,8.97
2018-05-23T13:57:38.389Z,9.40
2018-05-23T14:00:05.355Z,8.60
2018-05-23T14:02:33.077Z,11.53
2018-05-23T14:05:00.035Z,13.57
2018-05-23T14:07:26.992Z,6.97
2018-05-23T14:09:54.698Z,12.23
2018-05-23T14:12:21.656Z,10.57
2018-05-23T14:14:48.609Z,11.50
2018-05-23T14:17:16.360Z,6.67
2018-05-23T14:19:43.349Z,6.93
2018-05-23T14:22:10.304Z,7.70
2018-05-23T14:24:37.264Z,10.67
2018-05-23T14:27:05.008Z,10.73
2018-05-23T14:29:31.968Z,7.03
2018-05-23T14:31:59.694Z,9.00
2018-05-23T14:34:26.646Z,8.53
2018-05-23T14:36:53.815Z,12.00
2018-05-23T14:39:20.774Z,9.80
2018-05-23T14:41:48.520Z,28.17
2018-05-23T14:44:15.470Z,17.60
2018-05-23T14:46:43.231Z,22.90
2018-05-23T14:49:11.711Z,8.97
2018-05-23T14:51:40.164Z,9.10
2018-05-23T14:54:07.131Z,15.97
2018-05-23T14:56:34.298Z,15.67
2018-05-23T14:59:02.028Z,10.77
2018-05-23T15:01:28.976Z,9.37
2018-05-23T15:03:55.939Z,10.37
2018-05-23T15:06:22.909Z,13.00
2018-05-23T15:08:49.879Z,7.10
2018-05-23T15:11:16.841Z,9.00
2018-05-23T15:13:43.803Z,19.07
2018-05-23T15:16:10.780Z,15.93
2018-05-23T15:18:38.530Z,12.80
2018-05-23T15:21:05.481Z,8.97
2018-05-23T15:23:32.439Z,7.67
2018-05-23T15:25:59.405Z,18.73
2018-05-23T15:28:26.562Z,11.93
2018-05-23T15:30:53.533Z,17.27
2018-05-23T15:33:20.483Z,16.90
2018-05-23T15:35:47.443Z,9.40
2018-05-23T15:38:14.507Z,9.77
2018-05-23T15:40:42.965Z,11.50
2018-05-23T15:43:09.926Z,12.47
2018-05-23T15:45:36.884Z,12.27
2018-05-23T15:48:03.942Z,9.93
2018-05-23T15:50:30.891Z,17.13
2018-05-23T15:52:58.599Z,9.80
2018-05-23T15:55:25.775Z,12.33
2018-05-23T15:57:52.738Z,16.60
2018-05-23T16:00:20.467Z,15.53
2018-05-23T16:02:47.422Z,14.77
2018-05-23T16:05:14.395Z,9.67
2018-05-23T16:07:41.540Z,14.23
2018-05-23T16:10:09.998Z,15.63
2018-05-23T16:12:36.958Z,17.53
2018-05-23T16:15:03.912Z,19.47
2018-05-23T16:17:31.774Z,19.07
2018-05-23T16:19:58.733Z,25.30
2018-05-23T16:22:26.466Z,21.20
2018-05-23T16:24:53.424Z,15.37
2018-05-23T16:27:20.592Z,21.43
2018-05-23T16:29:47.550Z,12.77
2018-05-23T16:32:15.635Z,15.50
2018-05-23T16:34:42.584Z,12.70
2018-05-23T16:37:09.590Z,14.43
2018-05-23T16:39:36.543Z,11.40
2018-05-23T16:42:04.265Z,13.80
2018-05-23T16:44:31.304Z,12.30
2018-05-23T16:46:58.195Z,14.40
2018-05-23T16:49:25.149Z,17.03
2018-05-23T16:51:53.806Z,14.07
2018-05-23T16:54:21.212Z,12.60
2018-05-23T16:56:48.228Z,19.03
2018-05-23T16:59:15.399Z,11.90
2018-05-23T17:01:42.377Z,11.33
2018-05-23T17:04:09.564Z,11.13
2018-05-23T17:06:36.692Z,23.30
2018-05-23T17:09:03.738Z,17.13
2018-05-23T17:11:30.703Z,21.87
2018-05-23T17:13:57.730Z,23.30
2018-05-23T17:16:24.733Z,19.80
2018-05-23T17:18:52.455Z,14.17
2018-05-23T17:21:19.415Z,16.80
2018-05-23T17:23:46.372Z,14.53
2018-05-23T17:26:13.321Z,16.30
2018-05-23T17:28:41.044Z,13.60
2018-05-23T17:31:08.030Z,15.20
2018-05-23T17:33:34.979Z,13.07
2018-05-23T17:36:01.937Z,8.73
2018-05-23T17:38:28.928Z,8.13
2018-05-23T17:40:55.880Z,8.53
2018-05-23T17:43:22.845Z,8.93
2018-05-23T17:45:49.867Z,8.60
2018-05-23T17:48:16.837Z,12.07
2018-05-23T17:50:43.794Z,13.17
2018-05-23T17:53:10.750Z,9.13
2018-05-23T17:55:38.618Z,11.17
2018-05-23T17:58:05.648Z,17.20
2018-05-23T18:00:32.639Z,8.40
2018-05-23T18:02:59.616Z,9.27
2018-05-23T18:05:26.567Z,11.00
2018-05-23T18:07:53.675Z,8.60
2018-05-23T18:10:20.624Z,12.33
2018-05-23T18:12:47.593Z,11.20
2018-05-23T18:15:14.909Z,14.30
2018-05-23T18:17:42.043Z,10.60
2018-05-23T18:20:09.015Z,12.43
2018-05-23T18:22:35.957Z,7.40
2018-05-23T18:25:02.913Z,8.67
2018-05-23T18:27:30.068Z,9.07
2018-05-23T18:29:57.008Z,8.27
2018-05-23T18:32:24.284Z,9.43
2018-05-23T18:34:51.294Z,15.63
2018-05-23T18:37:18.435Z,13.23
2018-05-23T18:39:45.408Z,18.53
2018-05-23T18:42:12.395Z,11.27
2018-05-23T18:44:39.360Z,10.63
2018-05-23T18:47:06.493Z,14.87
2018-05-23T18:49:33.488Z,14.80
2018-05-23T18:52:00.464Z,13.03
2018-05-23T18:54:27.477Z,13.83
2018-05-23T18:56:55.210Z,14.83
2018-05-23T18:59:22.174Z,17.13
2018-05-23T19:01:49.144Z,13.47
2018-05-23T19:04:16.134Z,12.97
2018-05-23T19:06:43.225Z,12.30
2018-05-23T19:09:10.177Z,15.87
2018-05-23T19:11:37.151Z,15.97
2018-05-23T19:14:04.118Z,17.70
2018-05-23T19:16:31.186Z,19.90
2018-05-23T19:18:58.166Z,22.50
2018-05-23T19:21:25.134Z,20.17
2018-05-23T19:23:52.099Z,14.20
2018-05-23T19:26:19.065Z,13.87
2018-05-23T19:28:45.995Z,14.10
2018-05-23T19:31:12.962Z,15.07
2018-05-23T19:33:40.691Z,10.30
2018-05-23T19:36:07.643Z,17.60
2018-05-23T19:38:34.743Z,15.23
2018-05-23T19:41:02.451Z,14.87
2018-05-23T19:43:29.409Z,11.70
2018-05-23T19:45:56.359Z,13.00
2018-05-23T19:48:23.415Z,16.57
2018-05-23T19:50:50.374Z,14.80
2018-05-23T19:53:18.093Z,12.67
2018-05-23T19:55:45.064Z,13.70
2018-05-23T19:58:12.212Z,10.03
2018-05-23T20:00:39.166Z,12.20
2018-05-23T20:03:06.113Z,13.63
2018-05-23T20:05:33.086Z,14.77
2018-05-23T20:08:00.234Z,11.80
2018-05-23T20:10:27.166Z,10.90
2018-05-23T20:12:54.883Z,9.83
2018-05-23T20:15:21.828Z,11.33
2018-05-23T20:17:48.815Z,14.23
2018-05-23T20:20:16.351Z,13.43
2018-05-23T20:22:43.290Z,19.33
2018-05-23T20:25:10.962Z,18.10
2018-05-23T20:27:38.025Z,11.07
2018-05-23T20:30:04.971Z,10.20
2018-05-23T20:32:32.711Z,39.17
2018-05-23T20:34:59.663Z,18.93
2018-05-23T20:37:26.615Z,11.53
2018-05-23T20:39:53.569Z,13.87
2018-05-23T20:42:21.295Z,17.20
2018-05-23T20:44:48.270Z,12.43
2018-05-23T20:47:15.438Z,11.20
2018-05-23T20:49:42.395Z,20.17
2018-05-23T20:52:09.363Z,19.70
2018-05-23T20:54:36.318Z,17.00
2018-05-23T20:57:03.412Z,21.47
2018-05-23T20:59:30.379Z,18.40
2018-05-23T21:01:57.334Z,24.27
2018-05-23T21:04:24.310Z,22.10
2018-05-23T21:06:51.388Z,14.30
2018-05-23T21:09:18.353Z,23.10
2018-05-23T21:11:46.073Z,26.27
2018-05-23T21:14:13.054Z,17.57
2018-05-23T21:16:40.839Z,17.43
2018-05-23T21:19:07.796Z,11.97
2018-05-23T21:21:34.744Z,11.10
2018-05-23T21:24:01.716Z,12.07
2018-05-23T21:26:28.800Z,13.93
2018-05-23T21:28:55.756Z,9.73
2018-05-23T21:31:22.777Z,14.87
2018-05-23T21:33:49.750Z,18.33
2018-05-23T21:36:16.713Z,13.93
2018-05-23T21:38:43.682Z,11.20
2018-05-23T21:41:10.638Z,17.10
2018-05-23T21:43:37.597Z,13.73
2018-05-23T21:46:04.576Z,12.20
2018-05-23T21:48:32.176Z,13.80
2018-05-23T21:50:59.124Z,17.70
2018-05-23T21:53:26.080Z,8.27
2018-05-23T21:55:53.038Z,8.97
2018-05-23T21:58:20.044Z,10.40
2018-05-23T22:00:46.985Z,9.37
2018-05-23T22:03:13.925Z,8.00
2018-05-23T22:05:40.887Z,8.17
2018-05-23T22:08:07.996Z,10.43
2018-05-23T22:10:34.939Z,9.97
2018-05-23T22:13:01.912Z,11.73
2018-05-23T22:15:28.887Z,7.33
2018-05-23T22:17:56.651Z,7.60
2018-05-23T22:20:23.602Z,8.30
2018-05-23T22:22:50.550Z,9.40
2018-05-23T22:25:17.524Z,8.43
2018-05-23T22:27:44.580Z,7.57
2018-05-23T22:30:11.540Z,6.80
2018-05-23T22:32:39.557Z,8.10
2018-05-23T22:35:07.110Z,8.57
2018-05-23T22:37:34.223Z,10.90
2018-05-23T22:40:01.705Z,8.13
2018-05-23T22:42:28.573Z,7.83
2018-05-23T22:44:55.535Z,6.50
2018-05-23T22:47:22.590Z,9.00
2018-05-23T22:49:51.083Z,7.30
2018-05-23T22:52:18.033Z,10.60
2018-05-23T22:54:45.750Z,8.10
2018-05-23T22:57:12.847Z,7.03
2018-05-23T22:59:39.848Z,11.10
2018-05-23T23:02:06.976Z,7.70
2018-05-23T23:04:33.957Z,7.47
2018-05-23T23:07:01.281Z,8.40
2018-05-23T23:09:28.422Z,7.87
2018-05-23T23:11:55.516Z,6.57
2018-05-23T23:14:22.556Z,6.90
2018-05-23T23:16:49.627Z,7.13
2018-05-23T23:19:16.583Z,10.00
2018-05-23T23:21:43.679Z,7.17
2018-05-23T23:24:10.935Z,7.47
2018-05-23T23:26:38.019Z,9.97
2018-05-23T23:29:06.487Z,8.13
2018-05-23T23:31:33.444Z,8.40
2018-05-23T23:34:00.396Z,6.80
2018-05-23T23:36:27.445Z,6.57
2018-05-23T23:38:55.901Z,7.03
2018-05-23T23:41:22.862Z,6.93
2018-05-23T23:43:49.824Z,6.83
2018-05-23T23:46:16.776Z,6.33
2018-05-23T23:48:44.494Z,7.70
2018-05-23T23:51:11.456Z,6.97
2018-05-23T23:53:38.446Z,6.30
2018-05-23T23:56:05.400Z,11.77
2018-05-23T23:58:32.354Z,7.20
